EGJJ

Jersey Airport

Saint Helier, Jersey
TAF EGJJ 170155Z 1703/1712 31018KT 9999 SCT025 TEMPO 1703/1709 31022G35KT TEMPO 1703/1712 5000 SHRA BKN020CB PROB30 TEMPO 1703/1709 3000 +SHRAGS BKN015CB
Issued Valid From Valid To
Jan-17 @ 01:55 UTC
(3 hours ago)
Jan-17 @ 03:00 UTC
(2 hours ago)
Jan-17 @ 12:00 UTC
(in 7 hours)
Jan-17 @ 03:00 to Jan-17 @ 12:00
TAF EGJJ 170155Z 1703/1712 31018KT 9999 SCT025
Wind Visibility Clouds
310° at 18 knots 10,000+ meters
  • Scattered at 2,500' AGL
Temporary Jan-17 @ 03:00 to Jan-17 @ 09:00
TEMPO 1703/1712 5000 SHRA BKN020CB
Wind
310° at 22 knots
 Gusting to 35 knots
Temporary  (Probability 30%) Jan-17 @ 03:00 to Jan-17 @ 09:00
PROB30 TEMPO 1703/1709 3000 +SHRAGS BKN015CB
Visibility Clouds Conditions
2,993 meters
  • Broken at 1,500' AGL
  • Heavy Rain
  • Heavy Small hail
Temporary Jan-17 @ 03:00 to Jan-17 @ 12:00
TEMPO 1703/1712 5000 SHRA BKN020CB
Visibility Clouds Conditions
5,005 meters
  • Broken at 2,000' AGL
  • Rain
TAF EGJJ 170155Z 1703/1712 31018KT 9999 SCT025 TEMPO 1703/1709 31022G35KT TEMPO 1703/1712 5000 SHRA BKN020CB PROB30 TEMPO 1703/1709 3000 +SHRAGS BKN015CB
Issued Jan-17 @ 01:55 UTC
(3 hours ago)
Valid From Jan-17 @ 03:00 UTC
(2 hours ago)
Valid To Jan-17 @ 12:00 UTC
(in 7 hours)
Jan-17 @ 03:00 - Jan-17 @ 12:00
Wind Visibility
310° at 18 knots 10,000+ meters
Clouds
  • Scattered at 2,500' AGL
Temporary Jan-17 @ 03:00 - Jan-17 @ 09:00
Wind
310° at 22 knots
 Gusting to 35 knots
Probability 30% Temporary Jan-17 @ 03:00 - Jan-17 @ 09:00
Clouds
  • Broken at 1,500' AGL
Conditions
  • Heavy Rain
  • Heavy Small hail
Temporary Jan-17 @ 03:00 - Jan-17 @ 12:00
Clouds
  • Broken at 2,000' AGL
Conditions
  • Rain